Time;durP1;ratioP1;P1;durP2;ratioP2;P2;SDS_P1;SDS_P2;PMS_P1;PMS_P2;Temp;Humidity;BMP_temperature;BMP_pressure;BME280_temperature;BME280_humidity;BME280_pressure;Samples;Min_cycle;Max_cycle;Signal;HPM_P1;HPM_P2
2022/07/13 00:01:35;;;;;;;;;7.50;5.25;;;;;27.33;27.24;101526.56;5032067;28;63346;-50
2022/07/13 00:04:01;;;;;;;;;6.25;4.50;;;;;27.30;28.08;101529.50;5028801;28;45308;-52
2022/07/13 00:06:26;;;;;;;;;6.50;5.75;;;;;27.26;27.49;101532.41;5036093;28;45583;-50
2022/07/13 00:08:52;;;;;;;;;8.00;6.00;;;;;27.23;27.71;101534.53;5032209;28;45754;-53
2022/07/13 00:11:17;;;;;;;;;10.00;8.75;;;;;27.20;27.81;101535.66;5031603;28;45508;-53
2022/07/13 00:13:42;;;;;;;;;7.75;6.50;;;;;27.18;27.52;101534.94;5034661;28;45245;-51
2022/07/13 00:16:08;;;;;;;;;7.50;6.75;;;;;27.15;28.21;101535.19;5034239;28;57595;-50
2022/07/13 00:18:33;;;;;;;;;6.25;6.25;;;;;27.12;28.28;101531.91;5035238;28;74365;-51
2022/07/13 00:20:58;;;;;;;;;8.25;7.00;;;;;27.09;28.46;101527.63;5031925;28;70755;-53
2022/07/13 00:23:24;;;;;;;;;7.00;6.00;;;;;27.07;27.96;101526.91;5040733;28;59053;-51
2022/07/13 00:25:49;;;;;;;;;6.50;4.25;;;;;27.01;27.92;101522.06;5036556;28;45632;-49
2022/07/13 00:28:15;;;;;;;;;6.50;5.00;;;;;27.00;27.95;101531.97;5031548;28;73416;-53
2022/07/13 00:30:40;;;;;;;;;7.50;6.75;;;;;26.98;28.29;101530.38;5026339;28;52649;-53
2022/07/13 00:33:07;;;;;;;;;7.25;5.75;;;;;26.95;28.38;101528.81;5026328;28;45307;-53
2022/07/13 00:35:32;;;;;;;;;6.25;4.00;;;;;26.94;28.39;101526.25;5029709;28;45600;-52
2022/07/13 00:37:57;;;;;;;;;5.00;5.00;;;;;26.92;27.96;101522.84;5034905;28;46648;-50
2022/07/13 00:40:23;;;;;;;;;7.00;5.00;;;;;26.88;28.03;101523.09;5032133;28;45657;-52
2022/07/13 00:42:48;;;;;;;;;6.50;4.25;;;;;26.87;28.65;101518.69;5028373;28;45454;-53
2022/07/13 00:45:14;;;;;;;;;9.25;5.75;;;;;26.85;28.56;101520.66;5033950;28;45561;-51
2022/07/13 00:47:39;;;;;;;;;7.75;5.75;;;;;26.83;28.30;101521.78;5028799;28;71248;-52
2022/07/13 00:50:07;;;;;;;;;6.25;4.75;;;;;26.80;28.42;101512.13;5031069;28;45371;-52
2022/07/13 00:52:34;;;;;;;;;7.50;5.00;;;;;26.78;28.42;101514.09;5017395;28;45522;-53
2022/07/13 00:55:00;;;;;;;;;5.00;2.75;;;;;26.71;28.62;101503.00;5028440;28;48049;-54
2022/07/13 00:57:27;;;;;;;;;4.50;4.25;;;;;26.73;28.36;101516.31;5032352;28;67630;-52
2022/07/13 00:59:52;;;;;;;;;4.75;4.00;;;;;26.71;28.80;101513.75;5034587;28;46066;-53
2022/07/13 01:02:18;;;;;;;;;6.00;4.75;;;;;26.67;28.46;101509.63;5036154;28;45445;-51
2022/07/13 01:04:43;;;;;;;;;7.00;4.75;;;;;26.63;28.63;101508.19;5029903;28;45550;-50
2022/07/13 01:07:09;;;;;;;;;6.25;3.25;;;;;26.61;28.52;101502.06;5035428;28;46304;-53
2022/07/13 01:09:34;;;;;;;;;4.50;3.25;;;;;26.59;28.32;101500.47;5021217;28;51932;-49
2022/07/13 01:12:00;;;;;;;;;6.50;4.75;;;;;26.58;28.45;101504.13;5030733;28;45417;-51
2022/07/13 01:14:26;;;;;;;;;6.00;4.50;;;;;26.55;28.90;101504.41;5024412;28;45538;-52
2022/07/13 01:16:51;;;;;;;;;8.75;4.75;;;;;26.52;28.58;101501.00;5030478;28;69173;-52
2022/07/13 01:19:17;;;;;;;;;10.00;7.50;;;;;26.51;28.77;101507.34;5034009;28;45316;-50
2022/07/13 01:21:44;;;;;;;;;11.25;10.00;;;;;26.50;28.80;101504.78;5031372;28;49093;-50
2022/07/13 01:24:11;;;;;;;;;15.25;11.00;;;;;26.48;28.77;101504.03;5024236;28;45451;-51
2022/07/13 01:26:38;;;;;;;;;12.50;10.00;;;;;26.46;28.89;101501.47;5029142;28;45897;-55
2022/07/13 01:29:03;;;;;;;;;11.50;10.50;;;;;26.44;29.28;101506.13;5023383;28;46018;-52
2022/07/13 01:31:39;;;;;;;;;12.75;11.00;;;;;26.43;29.14;101504.41;5025799;28;45361;-51
2022/07/13 01:34:05;;;;;;;;;13.25;11.75;;;;;26.41;29.36;101505.53;5024070;28;45411;-52
2022/07/13 01:36:32;;;;;;;;;13.00;10.00;;;;;26.39;29.21;101499.44;5026330;28;46330;-52
2022/07/13 01:38:57;;;;;;;;;15.00;13.00;;;;;26.36;29.58;101503.22;5031722;28;45248;-47
2022/07/13 01:41:24;;;;;;;;;13.75;12.50;;;;;26.35;29.07;101506.91;5036443;28;45374;-48
2022/07/13 01:43:50;;;;;;;;;14.75;13.75;;;;;26.34;29.38;101499.81;5029766;28;45687;-49
2022/07/13 01:46:16;;;;;;;;;12.75;12.25;;;;;26.31;29.53;101497.38;5034986;28;56538;-48
2022/07/13 01:48:41;;;;;;;;;17.00;12.75;;;;;26.29;29.54;101504.69;5021358;28;45953;-49
2022/07/13 01:51:06;;;;;;;;;14.00;11.50;;;;;26.26;29.11;101500.44;5028147;28;69072;-52
2022/07/13 01:53:32;;;;;;;;;14.50;12.00;;;;;26.25;29.67;101498.72;5031497;28;45570;-50
2022/07/13 01:55:57;;;;;;;;;14.50;12.00;;;;;26.24;29.58;101499.72;5029657;28;66068;-54
2022/07/13 01:58:22;;;;;;;;;12.75;10.75;;;;;26.23;29.14;101502.53;5021703;28;65090;-51
2022/07/13 02:00:48;;;;;;;;;10.75;8.25;;;;;26.22;29.24;101490.06;5039020;28;56546;-54
2022/07/13 02:03:13;;;;;;;;;12.25;8.00;;;;;26.18;29.32;101486.78;5029210;28;58193;-54
2022/07/13 02:05:39;;;;;;;;;15.25;10.50;;;;;26.18;29.39;101488.63;5040827;28;45622;-50
2022/07/13 02:08:05;;;;;;;;;11.50;8.50;;;;;26.16;29.12;101480.69;5032693;28;45435;-54
2022/07/13 02:10:36;;;;;;;;;15.25;10.75;;;;;26.14;29.59;101482.66;5037677;28;45628;-53
2022/07/13 02:13:05;;;;;;;;;15.75;10.25;;;;;26.14;29.36;101488.88;5040880;28;45483;-51
2022/07/13 02:15:30;;;;;;;;;11.75;10.75;;;;;26.14;29.71;101478.13;5040301;28;46987;-50
2022/07/13 02:17:56;;;;;;;;;18.75;14.25;;;;;26.15;29.33;101481.66;5029664;28;66526;-54
2022/07/13 02:20:21;;;;;;;;;12.00;10.00;;;;;26.16;29.48;101479.84;5034881;28;45407;-53
2022/07/13 02:22:47;;;;;;;;;8.50;8.50;;;;;26.14;29.36;101472.78;5027195;28;73830;-48
2022/07/13 02:25:13;;;;;;;;;14.00;9.75;;;;;26.17;29.78;101479.75;5031113;28;73844;-51
2022/07/13 02:27:39;;;;;;;;;13.25;11.00;;;;;26.18;29.38;101481.44;5036040;28;45783;-52
2022/07/13 02:30:05;;;;;;;;;15.50;14.00;;;;;26.20;29.66;101473.25;5031576;28;45486;-50
2022/07/13 02:32:30;;;;;;;;;12.00;10.25;;;;;26.23;29.78;101473.00;5027516;28;45394;-55
2022/07/13 02:34:56;;;;;;;;;9.50;8.50;;;;;26.24;29.44;101469.34;5028783;28;66992;-53
2022/07/13 02:37:22;;;;;;;;;10.75;9.00;;;;;26.24;29.85;101469.34;5030716;28;47126;-51
2022/07/13 02:39:48;;;;;;;;;8.75;8.00;;;;;26.24;29.70;101462.16;5028677;28;58344;-53
2022/07/13 02:42:13;;;;;;;;;12.50;10.25;;;;;26.23;29.99;101467.66;5037977;28;45552;-49
2022/07/13 02:44:38;;;;;;;;;12.75;11.00;;;;;26.22;30.08;101465.94;5034044;28;72287;-48
2022/07/13 02:47:04;;;;;;;;;8.50;7.75;;;;;26.22;29.96;101461.41;5024379;28;64468;-49
2022/07/13 02:49:29;;;;;;;;;8.75;8.75;;;;;26.23;30.26;101459.59;5029231;28;65207;-51
2022/07/13 02:51:54;;;;;;;;;10.75;7.00;;;;;26.23;30.32;101457.75;5036545;28;45391;-51
2022/07/13 02:54:20;;;;;;;;;8.00;7.00;;;;;26.22;30.43;101455.19;5028455;28;75760;-48
2022/07/13 02:56:45;;;;;;;;;8.75;8.75;;;;;26.21;30.00;101451.66;5035027;28;45494;-54
2022/07/13 02:59:11;;;;;;;;;9.50;7.50;;;;;26.21;30.29;101459.72;5028035;28;45415;-53
2022/07/13 03:01:36;;;;;;;;;10.75;7.75;;;;;26.20;30.20;101463.38;5041045;28;63421;-51
2022/07/13 03:04:01;;;;;;;;;11.00;7.00;;;;;26.19;30.86;101467.03;5037660;28;63231;-52
2022/07/13 03:06:27;;;;;;;;;10.25;8.75;;;;;26.19;30.58;101466.16;5033352;28;45370;-54
2022/07/13 03:08:52;;;;;;;;;9.50;7.00;;;;;26.17;30.76;101462.75;5031366;28;45533;-49
2022/07/13 03:11:18;;;;;;;;;6.75;6.00;;;;;26.17;30.70;101466.31;5031058;28;70110;-53
2022/07/13 03:13:43;;;;;;;;;9.25;6.00;;;;;26.17;30.61;101466.31;5032036;28;46674;-52
2022/07/13 03:16:08;;;;;;;;;6.00;5.50;;;;;26.17;30.75;101469.00;5034006;28;66408;-54
2022/07/13 03:18:34;;;;;;;;;10.75;6.75;;;;;26.16;30.80;101469.97;5027714;28;45730;-54
2022/07/13 03:20:59;;;;;;;;;11.00;8.00;;;;;26.14;30.61;101467.41;5031685;28;67713;-52
2022/07/13 03:23:24;;;;;;;;;8.25;7.50;;;;;26.12;30.76;101458.63;5028951;28;75733;-53
2022/07/13 03:25:50;;;;;;;;;7.50;7.50;;;;;26.12;30.91;101458.63;5032315;28;45309;-53
2022/07/13 03:28:15;;;;;;;;;5.25;4.50;;;;;26.11;31.09;101462.28;5037966;28;45483;-53
2022/07/13 03:30:41;;;;;;;;;7.00;6.00;;;;;26.10;30.96;101462.41;5035603;28;69159;-54
2022/07/13 03:33:06;;;;;;;;;6.50;6.50;;;;;26.09;30.88;101461.56;5030663;28;45543;-54
2022/07/13 03:35:31;;;;;;;;;7.75;5.25;;;;;26.08;31.10;101464.38;5026721;28;70615;-53
2022/07/13 03:37:57;;;;;;;;;10.75;6.75;;;;;26.06;31.19;101460.97;5036497;28;45591;-49
2022/07/13 03:40:22;;;;;;;;;9.75;6.50;;;;;26.06;30.99;101460.97;5031922;28;64862;-55
2022/07/13 03:42:47;;;;;;;;;10.25;8.00;;;;;26.04;31.18;101461.06;5039746;28;60098;-53
2022/07/13 03:45:13;;;;;;;;;9.50;7.00;;;;;26.02;31.00;101460.34;5039006;28;45338;-54
2022/07/13 03:47:38;;;;;;;;;5.50;5.00;;;;;26.03;31.20;101458.53;5037510;28;45489;-55
2022/07/13 03:50:04;;;;;;;;;7.50;6.75;;;;;26.01;31.18;101469.41;5034327;28;64686;-55
2022/07/13 03:52:29;;;;;;;;;8.00;6.75;;;;;26.01;31.17;101469.41;5034317;28;45462;-54
2022/07/13 03:54:54;;;;;;;;;6.75;6.50;;;;;25.99;30.95;101468.66;5038876;28;52576;-53
2022/07/13 03:57:20;;;;;;;;;7.00;7.00;;;;;26.01;31.37;101468.53;5029773;28;45376;-52
2022/07/13 03:59:45;;;;;;;;;5.75;4.50;;;;;26.00;31.57;101475.72;5028992;28;67072;-54
2022/07/13 04:02:10;;;;;;;;;6.25;5.50;;;;;26.00;31.46;101470.38;5034504;28;46917;-50
2022/07/13 04:04:36;;;;;;;;;9.50;7.00;;;;;26.00;31.44;101470.38;5025486;28;65448;-50
2022/07/13 04:07:01;;;;;;;;;7.50;6.50;;;;;26.00;31.25;101473.03;5029163;28;65602;-53
2022/07/13 04:09:26;;;;;;;;;8.25;7.00;;;;;26.00;31.39;101472.19;5030983;28;62114;-54
2022/07/13 04:11:52;;;;;;;;;11.75;7.25;;;;;25.98;31.50;101471.47;5029214;28;67286;-52
2022/07/13 04:14:17;;;;;;;;;8.00;7.00;;;;;25.98;31.32;101472.31;5023680;28;45413;-50
2022/07/13 04:16:42;;;;;;;;;7.00;7.00;;;;;25.98;31.25;101464.28;5032378;28;45537;-51
2022/07/13 04:19:08;;;;;;;;;6.75;6.00;;;;;25.98;31.54;101475.00;5034684;28;67557;-53
2022/07/13 04:21:33;;;;;;;;;6.50;4.50;;;;;25.99;31.19;101467.81;5032252;28;65288;-54
2022/07/13 04:23:58;;;;;;;;;7.00;5.00;;;;;25.98;31.59;101464.28;5031593;28;70184;-50
2022/07/13 04:26:24;;;;;;;;;8.75;7.00;;;;;25.99;31.59;101468.66;5028667;28;67538;-49
2022/07/13 04:28:50;;;;;;;;;9.00;6.00;;;;;25.99;31.22;101470.47;5029864;28;45675;-54
2022/07/13 04:31:15;;;;;;;;;17.50;8.75;;;;;25.99;31.46;101467.81;5030364;28;60778;-60
2022/07/13 04:33:40;;;;;;;;;6.75;5.25;;;;;25.97;31.57;101464.41;5027076;28;45480;-60
2022/07/13 04:36:07;;;;;;;;;8.25;4.75;;;;;25.99;31.39;101465.13;5033240;28;46896;-60
2022/07/13 04:38:32;;;;;;;;;7.75;5.75;;;;;25.99;31.38;101462.44;5027498;28;45543;-60
2022/07/13 04:40:58;;;;;;;;;6.50;6.50;;;;;25.99;31.04;101462.44;5034461;28;51014;-60
2022/07/13 04:43:23;;;;;;;;;7.00;5.00;;;;;25.99;31.29;101465.13;5034789;28;45522;-60
2022/07/13 04:45:49;;;;;;;;;7.75;5.00;;;;;25.99;31.65;101457.91;5037123;28;63860;-60
2022/07/13 04:48:14;;;;;;;;;4.50;4.50;;;;;25.99;31.18;101457.91;5034054;28;45420;-60
2022/07/13 04:50:40;;;;;;;;;5.25;5.00;;;;;26.00;31.28;101456.94;5033059;28;47015;-60
2022/07/13 04:53:05;;;;;;;;;8.75;6.50;;;;;25.99;31.54;101457.91;5030268;28;59112;-60
2022/07/13 04:55:30;;;;;;;;;9.50;5.25;;;;;26.03;31.36;101466.56;5033860;28;54489;-60
2022/07/13 04:57:57;;;;;;;;;3.50;3.25;;;;;26.03;30.79;101467.44;5028163;28;66841;-60
2022/07/13 05:00:23;;;;;;;;;10.75;7.75;;;;;26.05;31.11;101459.28;5033237;28;46263;-60
2022/07/13 05:02:49;;;;;;;;;4.00;3.50;;;;;26.08;30.79;101459.88;5027069;28;45391;-60
2022/07/13 05:05:14;;;;;;;;;4.50;4.00;;;;;26.09;30.92;101466.94;5033064;28;52502;-60
2022/07/13 05:07:39;;;;;;;;;6.75;5.25;;;;;26.11;30.64;101466.81;5031205;28;45655;-60
2022/07/13 05:10:07;;;;;;;;;4.00;4.00;;;;;26.11;30.49;101464.97;5034527;28;59523;-60
2022/07/13 05:12:40;;;;;;;;;9.00;5.00;;;;;26.13;31.18;101464.84;5052787;28;45895;-61
2022/07/13 05:15:07;;;;;;;;;5.00;5.00;;;;;26.14;30.89;101463.88;5044096;28;45512;-59
2022/07/13 05:17:32;;;;;;;;;7.00;5.00;;;;;26.15;30.73;101465.56;5028719;28;45478;-59
2022/07/13 05:19:58;;;;;;;;;5.50;5.00;;;;;26.17;31.06;101473.50;5031438;28;75853;-59
2022/07/13 05:22:23;;;;;;;;;8.00;4.00;;;;;26.18;30.82;101470.69;5036183;28;69471;-59
2022/07/13 05:24:48;;;;;;;;;5.50;5.00;;;;;26.20;30.80;101465.22;5033083;28;64112;-59
2022/07/13 05:27:13;;;;;;;;;9.00;6.00;;;;;26.22;30.62;101457.88;5030827;28;55226;-62
2022/07/13 05:29:39;;;;;;;;;5.25;5.00;;;;;26.23;31.06;101464.97;5030999;28;74272;-59
2022/07/13 05:32:05;;;;;;;;;6.00;5.75;;;;;26.24;30.79;101464.84;5030080;28;45421;-60
2022/07/13 05:34:30;;;;;;;;;8.00;6.00;;;;;26.26;31.27;101467.38;5036354;28;45344;-60
2022/07/13 05:36:56;;;;;;;;;8.25;6.50;;;;;26.27;31.32;101463.72;5026065;28;57566;-61
2022/07/13 05:39:22;;;;;;;;;5.75;5.75;;;;;26.29;31.23;101469.81;5033091;28;45988;-59
2022/07/13 05:41:47;;;;;;;;;7.00;5.75;;;;;26.30;31.47;101472.38;5028225;28;45358;-60
2022/07/13 05:44:14;;;;;;;;;6.75;4.50;;;;;26.32;31.21;101470.41;5013405;28;45583;-61
2022/07/13 05:46:39;;;;;;;;;5.25;5.25;;;;;26.36;31.43;101470.16;5033107;28;45403;-61
2022/07/13 05:49:04;;;;;;;;;6.25;5.50;;;;;26.38;31.47;101469.03;5029154;28;45414;-61
2022/07/13 05:51:30;;;;;;;;;5.75;5.50;;;;;26.40;31.39;101468.91;5031051;28;45377;-61
2022/07/13 05:53:55;;;;;;;;;10.50;6.00;;;;;26.42;31.76;101481.25;5034927;28;60390;-60
2022/07/13 05:56:20;;;;;;;;;7.00;6.00;;;;;26.44;31.84;101478.44;5032027;28;68249;-61
2022/07/13 05:58:46;;;;;;;;;8.50;6.50;;;;;26.46;31.98;101477.31;5034473;28;55159;-62
2022/07/13 06:01:11;;;;;;;;;6.50;6.25;;;;;26.48;32.09;101480.72;5017946;28;45237;-61
2022/07/13 06:03:36;;;;;;;;;11.75;9.75;;;;;26.50;31.78;101481.44;5025834;28;45738;-61
2022/07/13 06:06:02;;;;;;;;;9.75;7.25;;;;;26.53;31.75;101475.84;5032492;28;52286;-61
2022/07/13 06:08:27;;;;;;;;;11.75;6.00;;;;;26.57;32.28;101480.97;5032424;28;46429;-61
2022/07/13 06:10:53;;;;;;;;;11.50;10.00;;;;;26.61;31.85;101485.09;5025009;28;63896;-61
2022/07/13 06:13:18;;;;;;;;;8.00;6.00;;;;;26.64;31.89;101482.19;5029841;28;45426;-61
2022/07/13 06:15:44;;;;;;;;;9.00;7.25;;;;;26.67;31.87;101484.63;5030039;28;67653;-60
2022/07/13 06:18:09;;;;;;;;;7.50;7.00;;;;;26.71;32.40;101486.06;5025573;28;45433;-61
2022/07/13 06:20:34;;;;;;;;;16.25;9.75;;;;;26.74;31.69;101487.63;5029606;28;48745;-60
2022/07/13 06:23:09;;;;;;;;;10.50;7.25;;;;;26.76;31.94;101486.53;5027005;28;45511;-61
2022/07/13 06:25:35;;;;;;;;;31.25;21.50;;;;;26.78;32.38;101489.94;5029845;28;45338;-59
2022/07/13 06:28:00;;;;;;;;;19.50;13.75;;;;;26.80;32.23;101490.66;5027043;28;45590;-60
2022/07/13 06:30:25;;;;;;;;;45.50;33.25;;;;;26.83;32.36;101486.88;5044674;28;45445;-60
2022/07/13 06:32:51;;;;;;;;;56.75;38.75;;;;;26.87;32.01;101488.31;5029032;28;47019;-61
2022/07/13 06:35:16;;;;;;;;;47.75;30.00;;;;;26.90;32.21;101488.06;5028588;28;45481;-60
2022/07/13 06:37:41;;;;;;;;;54.75;25.75;;;;;26.93;32.19;101485.09;5028069;28;61110;-60
2022/07/13 06:40:07;;;;;;;;;37.25;21.00;;;;;26.97;32.16;101491.06;5031084;28;65194;-60
2022/07/13 06:42:33;;;;;;;;;39.00;22.25;;;;;27.01;32.24;101488.00;5032120;28;45535;-61
2022/07/13 06:44:58;;;;;;;;;51.25;25.50;;;;;27.05;32.24;101486.72;5025696;28;71767;-60
2022/07/13 06:47:23;;;;;;;;;50.75;28.00;;;;;27.11;32.11;101479.13;5027835;28;45447;-60
2022/07/13 06:49:49;;;;;;;;;36.50;17.25;;;;;27.17;32.00;101484.84;5036690;28;58244;-60
2022/07/13 06:52:14;;;;;;;;;14.75;8.25;;;;;27.24;31.27;101479.81;5036209;28;50345;-62
2022/07/13 06:54:39;;;;;;;;;10.00;6.50;;;;;27.30;31.29;101478.44;5013948;28;45605;-59
2022/07/13 06:57:05;;;;;;;;;16.25;8.25;;;;;27.37;30.89;101485.00;5035458;28;73163;-60
2022/07/13 06:59:30;;;;;;;;;21.25;9.00;;;;;27.41;30.93;101484.59;5034012;28;45454;-60
2022/07/13 07:01:56;;;;;;;;;34.25;14.50;;;;;27.45;31.09;101490.56;5035559;28;45610;-61
2022/07/13 07:04:21;;;;;;;;;10.00;5.00;;;;;27.49;30.02;101486.63;5035137;28;64908;-61
2022/07/13 07:06:46;;;;;;;;;20.25;9.50;;;;;27.55;30.44;101487.91;5038167;28;45976;-61
2022/07/13 07:09:12;;;;;;;;;19.50;7.75;;;;;27.62;30.64;101497.16;5032060;28;45601;-60
2022/07/13 07:11:37;;;;;;;;;16.00;9.25;;;;;27.68;30.95;101495.78;5035354;28;57947;-60
2022/07/13 07:14:03;;;;;;;;;19.00;11.00;;;;;27.74;30.15;101498.75;5031804;28;45518;-60
2022/07/13 07:16:28;;;;;;;;;14.50;10.00;;;;;27.79;30.83;101493.00;5039103;28;45456;-60
2022/07/13 07:18:53;;;;;;;;;20.25;16.00;;;;;27.83;30.68;101495.28;5031661;28;60288;-60
2022/07/13 07:21:19;;;;;;;;;23.25;18.75;;;;;27.92;30.75;101490.09;5029261;28;45352;-60
2022/07/13 07:23:44;;;;;;;;;26.00;21.75;;;;;28.04;29.94;101489.00;5029353;28;69409;-61
2022/07/13 07:26:09;;;;;;;;;67.75;44.50;;;;;28.17;30.56;101488.75;5036027;28;45636;-59
2022/07/13 07:28:35;;;;;;;;;44.25;31.25;;;;;28.27;29.82;101489.63;5029516;28;73153;-60
2022/07/13 07:31:01;;;;;;;;;49.50;34.50;;;;;28.38;29.31;101500.28;5031913;28;45249;-60
2022/07/13 07:33:26;;;;;;;;;52.50;32.25;;;;;28.46;29.05;101496.03;5036355;28;46868;-60
2022/07/13 07:35:51;;;;;;;;;18.00;13.25;;;;;28.51;28.32;101505.38;5035321;28;69652;-60
2022/07/13 07:38:17;;;;;;;;;6.25;4.00;;;;;28.53;28.00;101498.03;5039392;28;45465;-60
2022/07/13 07:40:42;;;;;;;;;7.75;5.75;;;;;28.52;28.07;101503.53;5020965;28;45419;-60
2022/07/13 07:43:07;;;;;;;;;8.00;7.00;;;;;28.53;28.04;101492.63;5043713;28;66689;-60
2022/07/13 07:45:33;;;;;;;;;6.00;5.50;;;;;28.54;27.89;101488.13;5030611;28;45423;-60
2022/07/13 07:47:58;;;;;;;;;7.00;5.50;;;;;28.56;28.23;101495.09;5037068;28;68713;-60
2022/07/13 07:50:23;;;;;;;;;9.00;4.50;;;;;28.59;27.40;101486.69;5028279;28;50923;-60
2022/07/13 07:52:49;;;;;;;;;10.50;4.75;;;;;28.61;27.62;101488.41;5034054;28;70595;-60
2022/07/13 07:55:14;;;;;;;;;12.50;5.25;;;;;28.66;27.99;101488.84;5032385;28;46225;-61
2022/07/13 07:57:45;;;;;;;;;12.50;7.75;;;;;28.71;28.04;101489.28;5033560;28;59273;-60
2022/07/13 08:00:10;;;;;;;;;10.50;5.25;;;;;28.73;28.07;101490.81;5049314;28;46989;-60
2022/07/13 08:02:36;;;;;;;;;10.50;7.25;;;;;28.75;28.23;101488.00;5035649;28;45516;-60
2022/07/13 08:05:01;;;;;;;;;6.25;4.50;;;;;28.75;27.34;101479.91;5032039;28;75680;-53
2022/07/13 08:07:26;;;;;;;;;6.75;4.25;;;;;28.80;26.95;101482.19;5037582;28;65500;-54
2022/07/13 08:09:52;;;;;;;;;7.00;5.25;;;;;28.84;27.28;101481.75;5032804;28;54620;-56
2022/07/13 08:12:17;;;;;;;;;18.00;11.50;;;;;28.89;27.54;101482.16;5033047;28;55720;-56
2022/07/13 08:14:42;;;;;;;;;4.00;3.00;;;;;28.93;26.90;101485.41;5030154;28;45999;-56
2022/07/13 08:17:08;;;;;;;;;10.25;4.75;;;;;28.93;26.81;101486.28;5035623;28;45406;-56
2022/07/13 08:19:33;;;;;;;;;2.75;2.75;;;;;28.94;26.66;101487.13;5029294;28;45360;-55
2022/07/13 08:22:00;;;;;;;;;5.00;4.00;;;;;28.94;26.55;101485.28;5034338;28;63166;-54
2022/07/13 08:24:25;;;;;;;;;4.00;3.00;;;;;28.97;27.24;101476.91;5025338;28;46428;-56
2022/07/13 08:26:51;;;;;;;;;9.50;7.00;;;;;28.96;27.01;101485.97;5033667;28;61476;-54
2022/07/13 08:29:16;;;;;;;;;4.50;4.00;;;;;28.98;26.83;101480.47;5020046;28;45277;-56
2022/07/13 08:31:42;;;;;;;;;7.25;5.00;;;;;28.97;26.94;101485.00;5036651;28;45962;-57
2022/07/13 08:39:35;;;;;;;;;11.50;9.50;;;;;28.90;26.88;101486.56;5032697;28;45585;-55
2022/07/13 08:42:00;;;;;;;;;12.75;10.75;;;;;28.94;27.03;101482.59;5031383;28;73292;-56
2022/07/13 08:44:27;;;;;;;;;7.25;5.75;;;;;29.05;27.18;101491.53;5032715;28;45505;-56
2022/07/13 08:46:52;;;;;;;;;15.75;12.50;;;;;29.12;26.96;101479.16;5031238;28;45556;-57
2022/07/13 08:49:18;;;;;;;;;6.25;3.50;;;;;29.16;26.31;101486.00;5026870;28;45458;-57
2022/07/13 08:51:45;;;;;;;;;18.75;14.50;;;;;29.21;26.87;101474.78;5031250;28;45514;-53
2022/07/13 08:54:11;;;;;;;;;23.50;13.25;;;;;29.26;26.44;101476.03;5013545;28;47267;-59
2022/07/13 08:56:36;;;;;;;;;12.00;8.50;;;;;29.32;26.66;101474.59;5034420;28;45462;-57
2022/07/13 08:59:02;;;;;;;;;6.75;3.50;;;;;29.39;26.34;101480.25;5034675;28;45281;-59
2022/07/13 09:01:27;;;;;;;;;7.50;4.50;;;;;29.45;26.24;101474.31;5030573;28;68396;-59
2022/07/13 09:03:52;;;;;;;;;23.75;11.00;;;;;29.51;26.71;101473.69;5033760;28;73346;-59
2022/07/13 09:06:40;;;;;;;;;20.00;11.25;;;;;29.58;26.26;101465.88;5028442;28;45542;-59
2022/07/13 09:09:06;;;;;;;;;34.00;13.00;;;;;29.65;26.06;101466.97;5032957;28;45310;-59
2022/07/13 09:11:32;;;;;;;;;34.50;17.00;;;;;29.72;26.53;101470.78;5029735;28;45389;-59
2022/07/13 09:13:58;;;;;;;;;34.75;14.50;;;;;29.78;26.60;101464.81;5031759;28;45439;-59
2022/07/13 09:16:28;;;;;;;;;40.75;18.75;;;;;29.82;26.68;101470.75;5024242;28;46133;-60
2022/07/13 09:18:59;;;;;;;;;11.50;6.50;;;;;29.88;26.13;101470.16;5028441;28;45391;-59
2022/07/13 09:21:26;;;;;;;;;4.25;3.00;;;;;29.95;25.83;101473.94;5026728;28;45560;-59
2022/07/13 09:23:55;;;;;;;;;4.25;3.50;;;;;30.03;26.13;101467.78;5029550;28;45763;-59
2022/07/13 09:26:21;;;;;;;;;8.00;6.25;;;;;30.09;26.20;101461.81;5027888;28;45841;-58
2022/07/13 09:28:48;;;;;;;;;9.00;4.00;;;;;30.18;26.05;101468.16;5035874;28;45535;-59
2022/07/13 09:31:14;;;;;;;;;5.50;2.75;;;;;30.26;25.15;101458.28;5029460;28;45513;-59
2022/07/13 09:33:43;;;;;;;;;3.75;2.25;;;;;30.33;25.15;101450.41;5025736;28;46347;-60
2022/07/13 09:36:22;;;;;;;;;7.00;4.00;;;;;30.42;25.57;101460.34;5046057;27;45800;-59
2022/07/13 09:38:51;;;;;;;;;12.25;6.25;;;;;30.50;25.78;101456.84;5030029;28;45827;-61
2022/07/13 09:41:24;;;;;;;;;5.00;4.25;;;;;30.58;25.25;101453.34;5036871;28;45514;-59
2022/07/13 09:46:47;;;;;;;;;14.25;8.25;;;;;30.95;25.67;101461.31;5030808;28;45433;-60
2022/07/13 09:49:15;;;;;;;;;20.75;14.00;;;;;31.46;25.51;101461.44;5033717;28;45403;-59
2022/07/13 09:51:40;;;;;;;;;16.50;9.50;;;;;32.39;24.76;101466.06;5031082;28;45517;-60
2022/07/13 09:54:06;;;;;;;;;15.25;12.50;;;;;33.99;24.05;101469.06;5032496;28;45882;-59
2022/07/13 09:56:32;;;;;;;;;6.75;6.25;;;;;35.88;22.18;101465.50;5030257;28;72049;-56
2022/07/13 09:58:59;;;;;;;;;6.25;3.50;;;;;37.74;20.61;101462.72;5024330;28;45755;-55
2022/07/13 10:01:24;;;;;;;;;5.25;3.25;;;;;39.49;19.42;101464.56;5027928;28;46232;-54
2022/07/13 10:03:50;;;;;;;;;2.50;2.50;;;;;41.06;17.92;101460.41;5031253;28;55654;-56
2022/07/13 10:06:17;;;;;;;;;3.25;3.25;;;;;42.36;16.46;101453.69;5029863;28;48707;-52
2022/07/13 10:08:43;;;;;;;;;4.00;4.00;;;;;43.42;15.81;101459.25;5030457;28;45506;-54
2022/07/13 10:11:08;;;;;;;;;10.75;5.50;;;;;44.57;15.29;101454.78;5033631;28;45758;-55
2022/07/13 10:13:34;;;;;;;;;21.25;18.25;;;;;45.64;14.42;101467.31;5013138;28;45507;-53
2022/07/13 10:15:59;;;;;;;;;62.00;48.75;;;;;46.59;13.47;101461.38;5033848;28;45343;-51
2022/07/13 10:18:30;;;;;;;;;12.75;8.00;;;;;47.42;13.45;101459.91;5034693;28;45379;-52
2022/07/13 10:21:11;;;;;;;;;2.25;2.00;;;;;48.21;11.83;101452.31;5047505;28;45434;-52
2022/07/13 10:23:38;;;;;;;;;5.00;5.00;;;;;48.92;11.79;101449.75;5036098;28;46185;-54
2022/07/13 10:26:04;;;;;;;;;12.25;12.25;;;;;49.66;11.32;101456.41;5035721;28;45497;-52
2022/07/13 10:28:29;;;;;;;;;10.75;10.75;;;;;50.27;10.90;101457.09;5031543;28;45426;-50
2022/07/13 10:30:55;;;;;;;;;8.75;8.75;;;;;50.68;10.72;101460.34;5038910;28;45410;-49
2022/07/13 10:33:22;;;;;;;;;6.25;5.75;;;;;50.93;9.75;101461.22;5034826;28;47881;-50
2022/07/13 10:35:53;;;;;;;;;2.25;2.25;;;;;50.95;9.83;101450.59;5034504;28;45292;-50
2022/07/13 10:38:26;;;;;;;;;4.00;3.00;;;;;50.99;9.66;101459.19;5031685;28;45473;-51
2022/07/13 10:41:21;;;;;;;;;6.00;3.00;;;;;51.33;10.00;101449.84;5038444;28;45364;-52
2022/07/13 10:44:02;;;;;;;;;4.75;3.75;;;;;51.86;9.28;101446.84;5033647;28;46108;-49
2022/07/13 10:46:48;;;;;;;;;3.75;3.25;;;;;51.86;9.48;101449.63;5032732;28;45375;-51
2022/07/13 10:49:32;;;;;;;;;3.00;3.00;;;;;51.79;8.90;101446.41;5029700;28;45430;-53
2022/07/13 10:52:22;;;;;;;;;5.00;3.50;;;;;51.74;9.54;101452.06;5025584;28;45272;-54
2022/07/13 10:55:13;;;;;;;;;4.50;3.75;;;;;52.17;9.23;101440.75;5036906;28;46144;-50
2022/07/13 10:57:41;;;;;;;;;4.50;4.00;;;;;52.33;8.49;101436.59;5028620;28;45964;-51
2022/07/13 11:00:22;;;;;;;;;6.75;5.25;;;;;52.62;8.65;101438.28;5032774;28;46791;-53
2022/07/13 11:02:53;;;;;;;;;3.75;3.50;;;;;53.26;8.49;101443.16;5027692;28;45408;-53
2022/07/13 11:05:34;;;;;;;;;5.50;3.75;;;;;53.79;8.75;101441.66;5032194;28;46259;-45
2022/07/13 11:08:16;;;;;;;;;5.00;3.25;;;;;54.24;8.35;101450.06;5033274;28;45940;-50
2022/07/13 11:10:42;;;;;;;;;12.75;12.75;;;;;54.65;8.15;101446.16;5034333;28;45417;-47
2022/07/13 11:13:09;;;;;;;;;4.50;4.00;;;;;54.61;7.99;101448.78;5032271;28;45289;-46
2022/07/13 11:15:56;;;;;;;;;2.00;2.00;;;;;54.42;7.22;101448.16;5032651;28;46164;-52
2022/07/13 11:18:24;;;;;;;;;7.50;4.00;;;;;54.52;7.38;101441.47;5030262;28;45782;-51
2022/07/13 11:21:01;;;;;;;;;4.00;4.00;;;;;54.74;7.13;101446.16;5033411;28;45409;-52
2022/07/13 11:26:41;;;;;;;;;2.50;2.50;;;;;55.05;7.60;101440.50;5031855;28;45899;-50
2022/07/13 11:29:24;;;;;;;;;6.00;4.25;;;;;55.14;7.00;101430.13;5033781;28;45977;-53
2022/07/13 11:31:57;;;;;;;;;2.25;2.25;;;;;55.15;6.55;101431.78;5033210;28;45442;-49